Time;durP1;ratioP1;P1;durP2;ratioP2;P2;SDS_P1;SDS_P2;PMS_P1;PMS_P2;Temp;Humidity;BMP_temperature;BMP_pressure;BME280_temperature;BME280_humidity;BME280_pressure;Samples;Min_cycle;Max_cycle;Signal;HPM_P1;HPM_P2
2023/09/23 00:02:25;;;;;;;79.17;29.83;;;;;;;9.02;100.00;100585.41;4822092;29;20138;-94
2023/09/23 00:05:09;;;;;;;90.78;29.23;;;;;;;9.01;100.00;100583.75;4807329;29;20031;-95
2023/09/23 00:07:35;;;;;;;79.13;28.95;;;;;;;9.01;100.00;100581.06;4807771;29;20035;-95
2023/09/23 00:10:08;;;;;;;75.27;27.93;;;;;;;9.02;100.00;100588.13;4807740;29;20038;-95
2023/09/23 00:12:34;;;;;;;83.80;27.88;;;;;;;8.99;100.00;100591.25;4808319;29;20484;-94
2023/09/23 00:15:00;;;;;;;79.97;27.50;;;;;;;8.99;100.00;100593.94;4807503;29;20065;-95
2023/09/23 00:17:35;;;;;;;80.97;27.67;;;;;;;9.00;100.00;100584.81;4808352;29;20492;-93
2023/09/23 00:20:05;;;;;;;75.55;26.42;;;;;;;9.01;100.00;100591.88;4822722;29;20276;-94
2023/09/23 00:22:40;;;;;;;78.63;26.70;;;;;;;9.01;100.00;100589.19;4822342;29;20034;-94
2023/09/23 00:25:08;;;;;;;73.50;25.65;;;;;;;9.02;100.00;100588.97;4807409;29;20031;-94
2023/09/23 00:27:34;;;;;;;76.10;27.13;;;;;;;9.02;100.00;100596.22;4807337;29;20095;-95
2023/09/23 00:30:07;;;;;;;72.00;25.55;;;;;;;9.01;100.00;100591.88;4807578;29;20043;-94
2023/09/23 00:32:39;;;;;;;72.38;23.60;;;;;;;9.06;100.00;100597.47;4807180;29;20035;-94
2023/09/23 00:35:10;;;;;;;70.57;23.50;;;;;;;9.08;100.00;100596.22;4807734;29;20033;-94
2023/09/23 00:37:40;;;;;;;71.68;22.40;;;;;;;9.12;100.00;100596.63;4806795;29;20400;-94
2023/09/23 00:40:27;;;;;;;69.38;21.63;;;;;;;9.15;100.00;100598.09;4807553;29;20069;-93
2023/09/23 00:43:05;;;;;;;79.05;22.65;;;;;;;9.16;100.00;100602.47;4822376;29;20084;-94
2023/09/23 00:45:35;;;;;;;70.88;21.70;;;;;;;9.20;100.00;100619.94;4821865;29;20039;-95
2023/09/23 00:48:00;;;;;;;63.40;21.25;;;;;;;9.22;100.00;100617.84;4806259;29;20051;-95
2023/09/23 00:50:29;;;;;;;68.35;20.80;;;;;;;9.21;100.00;100614.31;4821669;29;20038;-94
2023/09/23 00:52:55;;;;;;;60.28;18.58;;;;;;;9.23;100.00;100612.22;4805817;29;20047;-94
2023/09/23 00:55:24;;;;;;;71.23;20.37;;;;;;;9.21;100.00;100610.78;4806708;29;20035;-94
2023/09/23 00:57:55;;;;;;;69.45;19.27;;;;;;;9.21;100.00;100616.19;4821328;29;20045;-94
2023/09/23 01:00:30;;;;;;;63.53;18.40;;;;;;;9.21;100.00;100610.78;4807476;29;20480;-94
2023/09/23 01:02:58;;;;;;;59.63;17.60;;;;;;;9.22;100.00;100612.44;4821030;29;20058;-94
2023/09/23 01:05:33;;;;;;;57.20;17.45;;;;;;;9.27;100.00;100618.88;4806041;29;20042;-94
2023/09/23 01:08:02;;;;;;;63.63;16.87;;;;;;;9.28;100.00;100619.72;4806769;29;20113;-94
2023/09/23 01:10:34;;;;;;;53.05;16.38;;;;;;;9.27;100.00;100624.31;4806313;29;20031;-94
2023/09/23 01:13:02;;;;;;;58.38;16.67;;;;;;;9.30;100.00;100626.59;4806345;29;20058;-95
2023/09/23 01:15:30;;;;;;;57.92;16.73;;;;;;;9.32;100.00;100625.53;4807413;29;20059;-94
2023/09/23 01:17:56;;;;;;;57.25;15.68;;;;;;;9.35;100.00;100631.34;4807444;29;20067;-95
2023/09/23 01:20:22;;;;;;;54.80;15.57;;;;;;;9.37;100.00;100629.25;4806436;29;20117;-95
2023/09/23 01:22:48;;;;;;;53.55;15.13;;;;;;;9.36;100.00;100635.75;4806388;29;20069;-95
2023/09/23 01:25:18;;;;;;;50.10;14.30;;;;;;;9.35;100.00;100639.47;4806173;29;20035;-95
2023/09/23 01:27:44;;;;;;;55.25;14.88;;;;;;;9.37;100.00;100641.97;4821615;29;20035;-96
2023/09/23 01:30:12;;;;;;;51.07;14.00;;;;;;;9.36;100.00;100638.44;4821424;29;20064;-96
2023/09/23 01:32:45;;;;;;;44.47;13.38;;;;;;;9.37;100.00;100644.69;4805771;29;20499;-95
2023/09/23 01:35:12;;;;;;;47.58;13.38;;;;;;;9.39;100.00;100648.00;4821323;29;20043;-95
2023/09/23 01:37:37;;;;;;;46.03;12.52;;;;;;;9.41;100.00;100640.50;4805818;29;20038;-95
2023/09/23 01:40:05;;;;;;;50.17;13.13;;;;;;;9.43;100.00;100643.81;4806149;29;20030;-95
2023/09/23 01:42:38;;;;;;;41.25;13.05;;;;;;;9.44;100.00;100645.50;4806587;29;20058;-95
2023/09/23 01:45:04;;;;;;;44.92;12.25;;;;;;;9.48;100.00;100649.44;4806158;29;20161;-95
2023/09/23 01:47:32;;;;;;;43.42;11.68;;;;;;;9.48;100.00;100652.16;4805963;29;20038;-96
2023/09/23 01:49:59;;;;;;;41.47;11.63;;;;;;;9.48;100.00;100663.00;4821152;29;20091;-95
2023/09/23 01:52:26;;;;;;;38.42;11.55;;;;;;;9.48;100.00;100652.16;4806180;29;20031;-95
2023/09/23 01:54:52;;;;;;;36.25;10.55;;;;;;;9.46;100.00;100659.66;4806352;29;20034;-95
2023/09/23 01:57:22;;;;;;;40.67;10.03;;;;;;;9.43;100.00;100654.66;4806755;29;20035;-94
2023/09/23 01:59:50;;;;;;;32.38;9.90;;;;;;;9.41;100.00;100654.03;4805858;29;20034;-94
2023/09/23 02:02:17;;;;;;;39.67;9.90;;;;;;;9.40;100.00;100665.91;4805437;29;20059;-94
2023/09/23 02:04:43;;;;;;;32.58;8.57;;;;;;;9.36;100.00;100665.53;4806080;29;20031;-94
2023/09/23 02:07:10;;;;;;;35.40;9.03;;;;;;;9.35;100.00;100666.56;4805999;29;20038;-94
2023/09/23 02:09:37;;;;;;;32.35;9.57;;;;;;;9.33;100.00;100663.25;4807311;29;20076;-94
2023/09/23 02:12:05;;;;;;;29.52;8.57;;;;;;;9.31;100.00;100662.59;4809559;29;20113;-94
2023/09/23 02:14:31;;;;;;;38.28;8.93;;;;;;;9.28;100.00;100669.25;4809558;29;20026;-96
2023/09/23 02:16:59;;;;;;;32.25;8.90;;;;;;;9.28;100.00;100688.22;4809764;29;20039;-95
2023/09/23 02:19:28;;;;;;;30.92;8.48;;;;;;;9.26;100.00;100676.78;4809519;29;20391;-96
2023/09/23 02:21:56;;;;;;;27.60;8.20;;;;;;;9.27;100.00;100677.59;4809303;29;20035;-96
2023/09/23 02:24:21;;;;;;;28.50;8.48;;;;;;;9.25;100.00;100683.22;4808753;29;20039;-96
2023/09/23 02:26:49;;;;;;;32.78;7.90;;;;;;;9.23;100.00;100690.72;4809060;29;20473;-96
2023/09/23 02:29:17;;;;;;;29.13;8.50;;;;;;;9.22;100.00;100682.81;4809242;29;20031;-95
2023/09/23 02:31:47;;;;;;;32.53;8.35;;;;;;;9.23;100.00;100687.22;4810463;29;20103;-95
2023/09/23 02:34:18;;;;;;;30.42;8.57;;;;;;;9.20;100.00;100693.03;4809110;29;20463;-96
2023/09/23 02:36:47;;;;;;;26.65;8.02;;;;;;;9.20;100.00;100696.56;4808843;29;20031;-95
2023/09/23 02:39:16;;;;;;;20.15;7.53;;;;;;;9.19;100.00;100716.56;4810156;29;20062;-95
2023/09/23 02:41:45;;;;;;;34.30;7.87;;;;;;;9.18;100.00;100703.22;4810514;29;20113;-96
2023/09/23 02:44:18;;;;;;;27.58;7.53;;;;;;;9.18;100.00;100716.75;4808706;29;20134;-95
2023/09/23 02:46:47;;;;;;;29.83;7.47;;;;;;;9.15;100.00;100715.31;4809231;29;20035;-96
2023/09/23 02:49:20;;;;;;;24.55;7.80;;;;;;;9.16;100.00;100711.56;4808573;29;20041;-96
2023/09/23 02:51:49;;;;;;;26.48;7.75;;;;;;;9.17;100.00;100712.38;4809095;29;20030;-95
2023/09/23 02:54:18;;;;;;;25.47;7.17;;;;;;;9.13;100.00;100712.81;4809651;29;20035;-95
2023/09/23 02:56:47;;;;;;;23.05;7.32;;;;;;;9.09;100.00;100708.88;4808741;29;20026;-95
2023/09/23 02:59:21;;;;;;;23.02;7.35;;;;;;;9.07;100.00;100721.75;4808960;29;20027;-94
2023/09/23 03:01:51;;;;;;;22.65;7.15;;;;;;;9.07;100.00;100723.66;4807677;29;20104;-94
2023/09/23 03:04:24;;;;;;;23.63;6.97;;;;;;;9.06;100.00;100721.97;4823488;29;20066;-94
2023/09/23 03:06:55;;;;;;;22.43;6.53;;;;;;;9.05;100.00;100723.00;4809847;29;20051;-95
2023/09/23 03:09:31;;;;;;;23.15;7.03;;;;;;;9.08;100.00;100728.00;4808909;29;20027;-95
2023/09/23 03:12:01;;;;;;;23.48;5.72;;;;;;;9.08;100.00;100723.44;4809197;29;20038;-95
2023/09/23 03:14:42;;;;;;;25.10;6.95;;;;;;;9.10;100.00;100728.66;4809385;29;20038;-95
2023/09/23 03:17:09;;;;;;;21.88;6.78;;;;;;;9.08;100.00;100733.41;4808292;29;20179;-95
2023/09/23 03:19:42;;;;;;;25.73;7.20;;;;;;;9.07;100.00;100729.88;4807889;29;20113;-94
2023/09/23 03:22:10;;;;;;;26.50;6.82;;;;;;;9.12;100.00;100729.25;4808144;29;20039;-95
2023/09/23 03:24:38;;;;;;;22.70;7.00;;;;;;;9.09;100.00;100735.94;4793431;29;20035;-95
2023/09/23 03:27:04;;;;;;;19.98;6.85;;;;;;;9.09;100.00;100744.06;4793415;29;20126;-94
2023/09/23 03:29:34;;;;;;;26.63;7.30;;;;;;;9.09;100.00;100746.78;4808114;29;20073;-94
2023/09/23 03:32:00;;;;;;;24.83;8.25;;;;;;;9.08;100.00;100726.16;4807803;29;20066;-95
2023/09/23 03:34:32;;;;;;;21.30;6.87;;;;;;;9.09;100.00;100735.09;4808069;29;20127;-94
2023/09/23 03:36:58;;;;;;;32.03;7.60;;;;;;;9.06;100.00;100741.75;4808322;29;20083;-95
2023/09/23 03:39:26;;;;;;;26.65;6.22;;;;;;;9.07;100.00;100739.88;4808387;29;20045;-95
2023/09/23 03:41:52;;;;;;;23.65;7.05;;;;;;;9.04;100.00;100743.00;4809532;29;20039;-95
2023/09/23 03:44:17;;;;;;;26.77;6.97;;;;;;;9.03;100.00;100746.75;4808182;29;20396;-94
2023/09/23 03:46:50;;;;;;;20.50;6.60;;;;;;;9.03;100.00;100757.56;4792933;29;20031;-95
2023/09/23 03:49:17;;;;;;;21.35;7.18;;;;;;;9.01;100.00;100759.66;4809018;29;20035;-94
2023/09/23 03:51:46;;;;;;;28.02;7.00;;;;;;;9.00;100.00;100753.41;4792569;29;20122;-95
2023/09/23 03:54:11;;;;;;;31.60;7.15;;;;;;;9.02;100.00;100769.44;4792559;29;20047;-94
2023/09/23 03:56:40;;;;;;;16.87;6.57;;;;;;;9.03;100.00;100771.09;4807734;29;20038;-95
2023/09/23 03:59:07;;;;;;;24.30;7.22;;;;;;;9.03;100.00;100761.09;4807745;29;20035;-95
2023/09/23 04:01:46;;;;;;;20.98;6.72;;;;;;;9.04;100.00;100761.97;4790332;30;20047;-95
2023/09/23 04:04:14;;;;;;;27.42;7.57;;;;;;;9.10;100.00;100761.94;4774651;30;20078;-96
2023/09/23 04:06:40;;;;;;;33.70;8.03;;;;;;;9.18;100.00;100763.59;4789697;30;20043;-96
2023/09/23 04:09:11;;;;;;;23.83;7.60;;;;;;;9.23;100.00;100763.00;4863042;24;20062;-95
2023/09/23 04:11:37;;;;;;;30.10;7.85;;;;;;;9.24;100.00;100757.38;4829758;29;20132;-95
2023/09/23 04:14:05;;;;;;;23.53;7.37;;;;;;;9.22;100.00;100766.75;4843732;29;20080;-94
2023/09/23 04:16:30;;;;;;;24.95;7.40;;;;;;;9.20;100.00;100780.50;4843328;29;20103;-94
2023/09/23 04:18:58;;;;;;;24.60;7.10;;;;;;;9.17;100.00;100778.19;4843479;29;20026;-94
2023/09/23 04:21:32;;;;;;;24.27;7.10;;;;;;;9.17;100.00;100782.75;4843648;29;20041;-94
2023/09/23 04:24:01;;;;;;;28.13;7.28;;;;;;;9.16;100.00;100783.81;4829409;29;20041;-94
2023/09/23 04:26:28;;;;;;;25.80;7.90;;;;;;;9.14;100.00;100786.75;4828852;29;20487;-93
2023/09/23 04:28:56;;;;;;;28.00;7.60;;;;;;;9.11;100.00;100792.56;4847047;29;20026;-94
2023/09/23 04:31:26;;;;;;;23.23;7.32;;;;;;;9.09;100.00;100802.75;4847895;29;20034;-93
2023/09/23 04:33:55;;;;;;;24.65;7.40;;;;;;;9.07;100.00;100797.53;4843939;29;20061;-94
2023/09/23 04:36:30;;;;;;;24.92;7.47;;;;;;;9.07;100.00;100804.84;4845299;29;20038;-93
2023/09/23 04:38:55;;;;;;;24.33;7.15;;;;;;;9.05;100.00;100807.75;4846946;29;20448;-94
2023/09/23 04:41:24;;;;;;;25.93;7.90;;;;;;;9.04;100.00;100808.78;4847546;29;20030;-94
2023/09/23 04:43:49;;;;;;;27.75;7.15;;;;;;;9.04;100.00;100813.38;4846306;29;20041;-94
2023/09/23 04:46:17;;;;;;;24.77;8.37;;;;;;;9.01;100.00;100811.91;4844687;29;20053;-94
2023/09/23 04:48:43;;;;;;;25.25;7.85;;;;;;;8.99;100.00;100814.00;4844042;29;20076;-94
2023/09/23 04:51:11;;;;;;;21.50;7.90;;;;;;;9.01;100.00;100811.91;4843350;29;20034;-94
2023/09/23 04:53:39;;;;;;;26.50;7.30;;;;;;;8.97;100.00;100815.25;4843220;29;20050;-94
2023/09/23 04:56:16;;;;;;;32.80;8.52;;;;;;;8.94;100.00;100811.88;4843991;29;20057;-94
2023/09/23 04:58:46;;;;;;;30.25;7.93;;;;;;;8.94;100.00;100828.13;4845334;29;20037;-93
2023/09/23 05:01:12;;;;;;;24.47;8.07;;;;;;;8.92;100.00;100832.91;4830805;29;20030;-93
2023/09/23 05:03:38;;;;;;;27.98;7.90;;;;;;;8.93;100.00;100837.31;4842971;29;20045;-92
2023/09/23 05:06:05;;;;;;;26.77;7.97;;;;;;;8.92;100.00;100835.63;4828069;29;20038;-94
2023/09/23 05:08:31;;;;;;;25.58;8.60;;;;;;;8.88;100.00;100841.66;4842575;29;20058;-94
2023/09/23 05:10:57;;;;;;;27.85;7.57;;;;;;;8.88;100.00;100845.19;4842538;29;20055;-94
2023/09/23 05:13:24;;;;;;;22.33;7.90;;;;;;;8.86;100.00;100844.56;4842914;29;20161;-95
2023/09/23 05:15:59;;;;;;;25.77;7.95;;;;;;;8.85;100.00;100848.31;4842649;29;20033;-94
2023/09/23 05:18:27;;;;;;;29.75;8.50;;;;;;;8.83;100.00;100857.66;4843015;29;20459;-94
2023/09/23 05:20:52;;;;;;;34.25;8.55;;;;;;;8.83;100.00;100863.06;4842914;29;20041;-95
2023/09/23 05:23:20;;;;;;;27.80;8.43;;;;;;;8.83;100.00;100861.22;4843130;29;20034;-94
2023/09/23 05:25:45;;;;;;;25.40;8.45;;;;;;;8.82;100.00;100873.06;4844596;29;20061;-93
2023/09/23 05:28:11;;;;;;;28.40;8.60;;;;;;;8.81;100.00;100875.97;4843736;29;20037;-94
2023/09/23 05:30:39;;;;;;;30.65;9.10;;;;;;;8.78;100.00;100886.16;4842782;29;20040;-94
2023/09/23 05:33:10;;;;;;;27.67;8.35;;;;;;;8.81;100.00;100886.78;4843212;29;20475;-93
2023/09/23 05:35:38;;;;;;;30.83;8.90;;;;;;;8.85;100.00;100890.75;4841976;29;20048;-91
2023/09/23 05:38:06;;;;;;;25.08;7.90;;;;;;;8.92;100.00;100897.03;4843686;29;20046;-93
2023/09/23 05:40:36;;;;;;;25.15;8.15;;;;;;;8.90;100.00;100899.09;4842561;29;20506;-93
2023/09/23 05:43:04;;;;;;;26.02;8.00;;;;;;;8.92;100.00;100908.69;4813861;29;20126;-92
2023/09/23 05:45:30;;;;;;;30.50;8.63;;;;;;;8.96;100.00;100906.41;4846204;29;20479;-93
2023/09/23 05:47:56;;;;;;;22.42;9.55;;;;;;;8.92;100.00;100914.09;4846209;29;20070;-93
2023/09/23 05:50:23;;;;;;;32.85;8.90;;;;;;;8.95;100.00;100912.88;4846011;29;20030;-92
2023/09/23 05:52:49;;;;;;;33.25;8.90;;;;;;;8.95;100.00;100926.41;4846253;29;20063;-93
2023/09/23 05:55:14;;;;;;;23.92;8.25;;;;;;;8.99;100.00;100934.94;4847580;29;20060;-92
2023/09/23 05:57:40;;;;;;;27.77;7.97;;;;;;;9.01;100.00;100931.00;4847162;29;20480;-92
2023/09/23 06:00:11;;;;;;;26.55;8.57;;;;;;;9.06;100.00;100931.19;4845570;29;20487;-92
2023/09/23 06:02:41;;;;;;;33.17;8.55;;;;;;;9.07;100.00;100934.75;4845463;29;20054;-92
2023/09/23 06:05:06;;;;;;;30.45;9.15;;;;;;;9.09;100.00;100933.53;4847060;29;20033;-92
2023/09/23 06:07:33;;;;;;;28.93;8.90;;;;;;;9.12;100.00;100941.25;4844819;29;20038;-91
2023/09/23 06:09:59;;;;;;;29.65;8.65;;;;;;;9.11;100.00;100946.84;4844683;29;20072;-94
2023/09/23 06:12:32;;;;;;;26.92;9.32;;;;;;;9.17;100.00;100959.56;4829687;29;20460;-91
2023/09/23 06:14:58;;;;;;;25.17;8.35;;;;;;;9.21;100.00;100957.28;4846661;29;20079;-91
2023/09/23 06:17:27;;;;;;;28.48;8.45;;;;;;;9.23;100.00;100972.28;4846588;29;20076;-91
2023/09/23 06:19:58;;;;;;;30.08;9.00;;;;;;;9.26;100.00;100971.88;4845388;29;20061;-91
2023/09/23 06:22:27;;;;;;;26.13;8.23;;;;;;;9.34;100.00;100978.16;4844827;29;20038;-91
2023/09/23 06:24:55;;;;;;;26.83;8.27;;;;;;;9.36;100.00;100984.19;4814487;29;20060;-91
2023/09/23 06:27:23;;;;;;;32.95;9.70;;;;;;;9.37;100.00;100988.56;4846254;29;20045;-92
2023/09/23 06:29:49;;;;;;;27.85;9.00;;;;;;;9.39;100.00;100992.75;4830123;29;20042;-92
2023/09/23 06:32:17;;;;;;;25.08;8.65;;;;;;;9.42;100.00;100991.50;4846045;29;20046;-92
2023/09/23 06:34:48;;;;;;;26.20;9.15;;;;;;;9.45;100.00;100994.66;4845539;29;20034;-91
2023/09/23 06:37:14;;;;;;;26.42;8.45;;;;;;;9.52;100.00;100999.22;4845466;29;20495;-92
2023/09/23 06:39:40;;;;;;;26.45;9.40;;;;;;;9.52;100.00;100997.34;4845844;29;20095;-92
2023/09/23 06:42:07;;;;;;;28.27;9.18;;;;;;;9.53;100.00;101001.75;4845703;29;20053;-91
2023/09/23 06:44:34;;;;;;;26.60;9.03;;;;;;;9.56;100.00;101004.03;4846103;29;20038;-94
2023/09/23 06:47:01;;;;;;;31.63;9.43;;;;;;;9.62;100.00;101005.91;4846224;29;20049;-91
2023/09/23 06:49:31;;;;;;;28.15;8.32;;;;;;;9.65;100.00;101013.66;4846029;29;20098;-92
2023/09/23 06:51:57;;;;;;;29.40;9.93;;;;;;;9.65;100.00;101020.94;4844755;29;20084;-92
2023/09/23 06:54:22;;;;;;;27.93;8.80;;;;;;;9.70;100.00;101023.03;4844954;29;20045;-91
2023/09/23 06:56:48;;;;;;;29.70;9.13;;;;;;;9.71;100.00;101036.38;4844613;29;20407;-93
2023/09/23 06:59:13;;;;;;;29.53;9.30;;;;;;;9.73;100.00;101025.31;4829297;29;20069;-92
2023/09/23 07:01:43;;;;;;;29.92;9.55;;;;;;;9.76;100.00;101033.88;4844189;29;20407;-91
2023/09/23 07:04:09;;;;;;;22.92;8.70;;;;;;;9.83;100.00;101029.31;4844941;29;20033;-92
2023/09/23 07:06:36;;;;;;;30.83;10.90;;;;;;;9.83;100.00;101037.44;4844678;29;20069;-93
2023/09/23 07:09:04;;;;;;;32.43;9.53;;;;;;;9.84;100.00;101030.97;4845716;29;20037;-93
2023/09/23 07:11:30;;;;;;;32.92;11.35;;;;;;;9.89;100.00;101034.94;4846470;29;20176;-94
2023/09/23 07:13:58;;;;;;;32.65;10.70;;;;;;;9.93;100.00;101037.03;4844860;29;20045;-94
2023/09/23 07:16:29;;;;;;;30.87;9.97;;;;;;;9.95;100.00;101043.09;4814823;29;20049;-95
2023/09/23 07:18:54;;;;;;;32.60;11.27;;;;;;;9.98;100.00;101044.53;4844939;29;20045;-95
2023/09/23 07:21:20;;;;;;;33.60;12.23;;;;;;;10.03;100.00;101049.38;4844372;29;20033;-96
2023/09/23 07:23:45;;;;;;;33.75;11.38;;;;;;;10.08;100.00;101057.69;4829549;29;20481;-95
2023/09/23 07:26:19;;;;;;;27.00;11.17;;;;;;;10.09;100.00;101062.91;4844499;29;20120;-96
2023/09/23 07:28:45;;;;;;;26.10;10.75;;;;;;;10.11;100.00;101074.41;4844602;29;20506;-95
2023/09/23 07:31:12;;;;;;;26.07;11.30;;;;;;;10.16;100.00;101066.47;4845592;29;20042;-95
2023/09/23 07:33:38;;;;;;;28.02;11.48;;;;;;;10.22;100.00;101066.69;4829039;29;20034;-95
2023/09/23 07:36:12;;;;;;;30.37;11.50;;;;;;;10.25;100.00;101077.13;4845844;29;20082;-95
2023/09/23 07:38:38;;;;;;;32.20;11.70;;;;;;;10.31;100.00;101079.00;4845186;29;20038;-95
2023/09/23 07:41:06;;;;;;;36.10;11.68;;;;;;;10.35;100.00;101083.00;4844259;29;20108;-95
2023/09/23 07:43:32;;;;;;;27.27;11.02;;;;;;;10.41;100.00;101092.16;4844339;29;20045;-89
2023/09/23 07:45:57;;;;;;;32.10;11.83;;;;;;;10.47;100.00;101091.34;4842894;29;20034;-89
2023/09/23 07:48:23;;;;;;;34.63;11.97;;;;;;;10.51;100.00;101096.16;4827734;29;20480;-91
2023/09/23 07:50:58;;;;;;;28.33;10.63;;;;;;;10.58;100.00;101100.72;4844554;29;20282;-95
2023/09/23 07:53:32;;;;;;;30.20;11.88;;;;;;;10.65;100.00;101101.56;4816553;29;20482;-93
2023/09/23 07:56:00;;;;;;;34.85;12.43;;;;;;;10.69;100.00;101108.25;4828669;29;20052;-91
2023/09/23 07:58:38;;;;;;;;;;;;;;;;;;;;;
2023/09/23 08:01:04;;;;;;;30.98;12.45;;;;;;;10.78;100.00;101119.72;4844988;29;20490;-93
2023/09/23 08:03:38;;;;;;;26.43;11.77;;;;;;;10.82;100.00;101123.66;4843039;29;20124;-92
2023/09/23 08:06:03;;;;;;;28.48;11.18;;;;;;;10.91;100.00;101129.72;4829201;29;20058;-93
2023/09/23 08:08:38;;;;;;;31.98;12.80;;;;;;;10.93;100.00;101119.50;4843204;29;20034;-95
2023/09/23 08:11:06;;;;;;;25.43;11.27;;;;;;;10.96;100.00;101132.66;4843991;29;20054;-96
2023/09/23 08:13:34;;;;;;;25.05;10.50;;;;;;;11.04;100.00;101137.84;4843875;29;20129;-96
2023/09/23 08:16:04;;;;;;;25.73;11.38;;;;;;;11.11;100.00;101146.00;4844046;29;20064;-96
2023/09/23 08:18:33;;;;;;;23.52;10.52;;;;;;;11.19;100.00;101145.75;4828648;29;20042;-96
2023/09/23 08:20:59;;;;;;;29.33;11.18;;;;;;;11.23;100.00;101142.41;4828584;29;20046;-96
2023/09/23 08:23:41;;;;;;;25.90;11.23;;;;;;;11.29;100.00;101156.19;4843312;29;20050;-96
2023/09/23 08:26:10;;;;;;;25.10;10.20;;;;;;;11.35;100.00;101156.19;4825150;29;20030;-96
2023/09/23 08:28:42;;;;;;;22.65;9.95;;;;;;;11.42;100.00;101158.88;4841677;29;20034;-96
2023/09/23 08:31:20;;;;;;;;;;;;;;;;;;;;;
2023/09/23 08:33:53;;;;;;;25.75;10.38;;;;;;;11.65;100.00;101161.09;4832978;29;20121;-95
2023/09/23 08:36:19;;;;;;;15.57;9.77;;;;;;;11.73;100.00;101158.13;4871737;24;20058;-96
2023/09/23 08:40:03;;;;;;;;;;;;;;;;;;;;;
2023/09/23 08:42:27;;;;;;;11.55;7.63;;;;;;;11.79;100.00;101180.06;4827448;29;20089;-96
2023/09/23 08:44:53;;;;;;;13.00;6.85;;;;;;;11.90;100.00;101184.84;4833694;29;20428;-96
2023/09/23 08:47:26;;;;;;;18.33;7.68;;;;;;;12.02;100.00;101185.84;4824362;29;20050;-96
2023/09/23 08:50:05;;;;;;;;;;;;;;;;;;;;;
2023/09/23 08:52:35;;;;;;;9.70;5.43;;;;;;;12.34;100.00;101206.81;4812370;29;20114;-96
2023/09/23 08:55:07;;;;;;;13.23;5.22;;;;;;;12.55;100.00;101217.38;4806996;29;20630;-96
2023/09/23 08:58:01;;;;;;;11.73;5.25;;;;;;;12.63;100.00;101206.19;4820413;29;20094;-97
2023/09/23 09:00:23;;;;;;;12.75;4.88;;;;;;;12.72;100.00;101208.66;4837673;29;20095;-96
2023/09/23 09:02:53;;;;;;;9.53;4.43;;;;;;;12.86;100.00;101215.69;4828505;29;20058;-96
2023/09/23 09:05:44;;;;;;;8.10;4.55;;;;;;;12.98;100.00;101222.06;4812731;29;20031;-96
2023/09/23 09:08:10;;;;;;;8.95;3.33;;;;;;;13.14;100.00;101217.94;4812537;29;20110;-96
2023/09/23 09:10:35;;;;;;;5.72;2.97;;;;;;;13.28;100.00;101209.66;4809456;29;20511;-96
2023/09/23 09:13:08;;;;;;;13.27;3.90;;;;;;;13.43;100.00;101225.66;4824885;29;20027;-96
2023/09/23 09:15:41;;;;;;;8.25;3.30;;;;;;;13.71;100.00;101222.44;4822814;29;20031;-96
2023/09/23 09:18:27;;;;;;;7.17;3.00;;;;;;;13.93;100.00;101228.25;4808458;29;20043;-95
2023/09/23 09:21:30;;;;;;;8.18;2.50;;;;;;;14.00;100.00;101225.47;4791425;29;20039;-95
2023/09/23 09:24:06;;;;;;;9.57;2.42;;;;;;;13.93;100.00;101232.88;4792874;29;20408;-96
2023/09/23 09:26:53;;;;;;;4.32;2.15;;;;;;;13.72;100.00;101251.38;4807071;29;20043;-95
2023/09/23 09:29:24;;;;;;;6.40;2.28;;;;;;;13.68;100.00;101241.97;4806296;29;20062;-96
2023/09/23 09:32:01;;;;;;;6.03;2.00;;;;;;;13.68;100.00;101248.28;4821627;29;20027;-95
2023/09/23 09:34:47;;;;;;;10.00;2.30;;;;;;;13.61;100.00;101247.50;4821034;29;20164;-96
2023/09/23 09:37:18;;;;;;;9.63;2.38;;;;;;;13.68;100.00;101247.44;4821268;29;20070;-96
2023/09/23 09:40:11;;;;;;;;;;;;;;;;;;;;;
2023/09/23 09:43:06;;;;;;;8.93;2.30;;;;;;;13.68;100.00;101258.34;4807246;29;20034;-96
2023/09/23 09:48:43;;;;;;;6.50;1.90;;;;;;;13.81;100.00;101258.19;4807479;29;20484;-95
2023/09/23 09:51:14;;;;;;;5.47;1.70;;;;;;;13.86;100.00;101272.00;4818921;29;20070;-96
2023/09/23 09:53:46;;;;;;;7.78;1.70;;;;;;;13.95;100.00;101266.22;4806656;29;20046;-96
2023/09/23 09:56:19;;;;;;;8.57;2.40;;;;;;;13.88;100.00;101266.31;4805739;29;20051;-96
2023/09/23 09:58:55;;;;;;;9.53;2.00;;;;;;;13.83;100.00;101266.13;4805995;29;20043;-95
2023/09/23 10:01:42;;;;;;;;;;;;;;;;;;;;;
2023/09/23 10:04:23;;;;;;;5.93;2.22;;;;;;;14.01;100.00;101260.69;4793321;29;20388;-96
2023/09/23 10:07:05;;;;;;;7.43;2.30;;;;;;;14.20;100.00;101268.84;4792007;29;20069;-96
2023/09/23 10:10:14;;;;;;;10.18;2.38;;;;;;;14.39;100.00;101273.25;4806801;29;20047;-96
2023/09/23 10:13:08;;;;;;;8.67;2.57;;;;;;;14.44;100.00;101286.19;4819983;29;20043;-96
2023/09/23 10:15:40;;;;;;;7.43;2.05;;;;;;;14.57;100.00;101283.28;4814172;29;20046;-95
2023/09/23 10:18:43;;;;;;;;;;;;;;;;;;;;;
2023/09/23 10:21:39;;;;;;;8.38;2.78;;;;;;;15.01;100.00;101276.78;4808916;29;20463;-96
2023/09/23 10:24:27;;;;;;;7.93;2.63;;;;;;;15.04;100.00;101281.78;4806677;29;20034;-96
2023/09/23 10:27:10;;;;;;;7.17;2.00;;;;;;;14.84;100.00;101299.31;4809072;29;20136;-96
2023/09/23 10:29:50;;;;;;;8.95;2.30;;;;;;;14.83;100.00;101288.63;4809947;29;20503;-95
2023/09/23 10:35:32;;;;;;;6.32;2.60;;;;;;;14.54;100.00;101307.47;4780358;29;20054;-96
2023/09/23 10:38:37;;;;;;;;;;;;;;;;;;;;;
2023/09/23 10:41:17;;;;;;;6.47;2.50;;;;;;;14.70;100.00;101295.09;4811155;29;20042;-96
2023/09/23 10:44:13;;;;;;;6.30;2.55;;;;;;;14.65;100.00;101300.44;4824583;29;20038;-96
2023/09/23 10:46:46;;;;;;;6.22;2.60;;;;;;;14.76;100.00;101307.00;4808432;29;20051;-96
2023/09/23 10:49:16;;;;;;;9.38;2.25;;;;;;;14.77;100.00;101316.88;4824549;29;20038;-96
2023/09/23 10:51:57;;;;;;;8.63;2.45;;;;;;;14.76;100.00;101324.22;4809949;29;20031;-96
2023/09/23 10:54:27;;;;;;;10.20;2.60;;;;;;;14.71;100.00;101329.53;4823940;29;20045;-96
2023/09/23 10:57:12;;;;;;;8.98;3.00;;;;;;;14.77;100.00;101316.88;4794015;29;20073;-96
2023/09/23 11:03:48;;;;;;;4.50;2.90;;;;;;;14.10;100.00;101334.03;4772879;29;20046;-94
2023/09/23 11:06:19;;;;;;;5.80;3.10;;;;;;;14.29;100.00;101335.72;4802731;29;20480;-94
2023/09/23 11:08:49;;;;;;;7.43;3.10;;;;;;;14.63;100.00;101335.31;4811617;29;20389;-94
2023/09/23 11:11:47;;;;;;;;;;;;;;;;;;;;;
2023/09/23 11:14:34;;;;;;;5.82;2.80;;;;;;;16.47;100.00;101341.66;4823020;29;20031;-94
2023/09/23 11:20:09;;;;;;;4.93;2.67;;;;;;;19.48;93.02;101341.00;4791534;29;20066;-95
2023/09/23 11:22:55;;;;;;;6.40;2.40;;;;;;;17.89;97.30;101342.75;4778406;29;20051;-94
2023/09/23 11:29:35;;;;;;;;;;;;;;;;;;;;;
2023/09/23 11:31:53;;;;;;;;;;;;;;;;;;;;;
2023/09/23 11:34:39;;;;;;;5.72;1.95;;;;;;;23.45;71.44;101341.78;4780525;29;20053;-95
2023/09/23 11:37:32;;;;;;;;;;;;;;;;;;;;;
2023/09/23 11:40:14;;;;;;;;;;;;;;;;;;;;;
2023/09/23 11:43:09;;;;;;;3.90;1.73;;;;;;;25.68;60.05;101360.81;4816572;29;20046;-96
2023/09/23 11:45:48;;;;;;;5.97;2.08;;;;;;;26.08;57.92;101353.66;4813608;29;20050;-96
2023/09/23 11:49:11;;;;;;;4.45;1.75;;;;;;;25.47;56.21;101374.22;4811686;29;20483;-96
2023/09/23 11:51:17;;;;;;;3.93;1.50;;;;;;;22.87;62.66;101370.13;4816771;29;20042;-96
2023/09/23 11:53:51;;;;;;;4.07;1.70;;;;;;;21.47;66.91;101375.19;4835067;29;20502;-96
2023/09/23 11:56:43;;;;;;;4.85;1.85;;;;;;;20.78;72.40;101374.53;4822715;29;20066;-95
2023/09/23 11:59:23;;;;;;;;;;;;;;;;;;;;;
2023/09/23 12:08:52;;;;;;;3.35;1.50;;;;;;;17.41;90.86;101407.31;4800667;29;20042;-96
2023/09/23 12:11:32;;;;;;;5.55;1.98;;;;;;;16.75;93.64;101402.22;4818722;29;20084;-95
2023/09/23 12:14:26;;;;;;;5.53;2.08;;;;;;;16.58;98.24;101413.94;4821898;29;20098;-96
2023/09/23 12:17:14;;;;;;;5.95;1.85;;;;;;;16.28;99.01;101414.09;4825515;29;20522;-96
2023/09/23 12:19:58;;;;;;;4.80;1.63;;;;;;;16.34;100.00;101413.13;4808750;29;20037;-96